sensor_id;sensor_type;location;lat;lon;timestamp;P1;durP1;ratioP1;P2;durP2;ratioP2
79533;SDS011;68982;52.160;6.736;2024-01-30T00:02:12;17.90;;;9.00;;
79533;SDS011;68982;52.160;6.736;2024-01-30T00:04:37;13.25;;;8.90;;
79533;SDS011;68982;52.160;6.736;2024-01-30T00:07:03;12.48;;;8.65;;
79533;SDS011;68982;52.160;6.736;2024-01-30T00:09:28;17.70;;;9.68;;
79533;SDS011;68982;52.160;6.736;2024-01-30T00:11:54;14.23;;;9.25;;
79533;SDS011;68982;52.160;6.736;2024-01-30T00:14:19;18.20;;;9.40;;
79533;SDS011;68982;52.160;6.736;2024-01-30T00:16:44;14.20;;;8.93;;
79533;SDS011;68982;52.160;6.736;2024-01-30T00:19:10;14.40;;;8.93;;
79533;SDS011;68982;52.160;6.736;2024-01-30T00:21:35;13.90;;;8.43;;
79533;SDS011;68982;52.160;6.736;2024-01-30T00:24:01;13.38;;;7.95;;
79533;SDS011;68982;52.160;6.736;2024-01-30T00:26:26;15.52;;;8.00;;
79533;SDS011;68982;52.160;6.736;2024-01-30T00:28:51;13.18;;;8.30;;
79533;SDS011;68982;52.160;6.736;2024-01-30T00:31:17;18.27;;;8.43;;
79533;SDS011;68982;52.160;6.736;2024-01-30T00:33:43;14.80;;;8.88;;
79533;SDS011;68982;52.160;6.736;2024-01-30T00:36:09;16.70;;;8.48;;
79533;SDS011;68982;52.160;6.736;2024-01-30T00:38:35;12.85;;;8.32;;
79533;SDS011;68982;52.160;6.736;2024-01-30T00:41:01;16.70;;;9.07;;
79533;SDS011;68982;52.160;6.736;2024-01-30T00:43:29;14.30;;;8.57;;
79533;SDS011;68982;52.160;6.736;2024-01-30T00:45:56;16.27;;;9.02;;
79533;SDS011;68982;52.160;6.736;2024-01-30T00:48:21;14.85;;;7.88;;
79533;SDS011;68982;52.160;6.736;2024-01-30T00:50:46;14.70;;;8.75;;
79533;SDS011;68982;52.160;6.736;2024-01-30T00:53:12;13.87;;;8.27;;
79533;SDS011;68982;52.160;6.736;2024-01-30T00:55:37;14.13;;;8.13;;
79533;SDS011;68982;52.160;6.736;2024-01-30T00:58:03;13.63;;;7.72;;
79533;SDS011;68982;52.160;6.736;2024-01-30T01:00:29;15.73;;;8.65;;
79533;SDS011;68982;52.160;6.736;2024-01-30T01:02:54;12.30;;;8.00;;
79533;SDS011;68982;52.160;6.736;2024-01-30T01:05:20;18.23;;;8.73;;
79533;SDS011;68982;52.160;6.736;2024-01-30T01:07:46;15.38;;;8.57;;
79533;SDS011;68982;52.160;6.736;2024-01-30T01:10:13;17.35;;;8.52;;
79533;SDS011;68982;52.160;6.736;2024-01-30T01:12:38;14.48;;;8.45;;
79533;SDS011;68982;52.160;6.736;2024-01-30T01:15:04;16.67;;;8.38;;
79533;SDS011;68982;52.160;6.736;2024-01-30T01:17:30;14.20;;;8.70;;
79533;SDS011;68982;52.160;6.736;2024-01-30T01:19:56;16.27;;;8.55;;
79533;SDS011;68982;52.160;6.736;2024-01-30T01:22:22;17.90;;;9.10;;
79533;SDS011;68982;52.160;6.736;2024-01-30T01:24:47;14.98;;;9.48;;
79533;SDS011;68982;52.160;6.736;2024-01-30T01:27:13;15.63;;;8.95;;
79533;SDS011;68982;52.160;6.736;2024-01-30T01:29:38;16.27;;;7.93;;
79533;SDS011;68982;52.160;6.736;2024-01-30T01:32:04;14.17;;;8.20;;
79533;SDS011;68982;52.160;6.736;2024-01-30T01:34:29;15.75;;;9.15;;
79533;SDS011;68982;52.160;6.736;2024-01-30T01:36:55;14.95;;;8.40;;
79533;SDS011;68982;52.160;6.736;2024-01-30T01:39:20;13.27;;;8.13;;
79533;SDS011;68982;52.160;6.736;2024-01-30T01:41:48;15.70;;;8.45;;
79533;SDS011;68982;52.160;6.736;2024-01-30T01:44:13;15.43;;;8.80;;
79533;SDS011;68982;52.160;6.736;2024-01-30T01:46:38;19.75;;;8.55;;
79533;SDS011;68982;52.160;6.736;2024-01-30T01:49:04;16.77;;;8.30;;
79533;SDS011;68982;52.160;6.736;2024-01-30T01:51:31;18.80;;;9.35;;
79533;SDS011;68982;52.160;6.736;2024-01-30T01:53:58;14.23;;;8.02;;
79533;SDS011;68982;52.160;6.736;2024-01-30T01:56:27;15.88;;;8.93;;
79533;SDS011;68982;52.160;6.736;2024-01-30T01:58:54;14.00;;;8.45;;
79533;SDS011;68982;52.160;6.736;2024-01-30T02:01:20;14.40;;;8.82;;
79533;SDS011;68982;52.160;6.736;2024-01-30T02:03:46;13.95;;;8.23;;
79533;SDS011;68982;52.160;6.736;2024-01-30T02:06:15;15.45;;;8.05;;
79533;SDS011;68982;52.160;6.736;2024-01-30T02:08:41;15.52;;;8.20;;
79533;SDS011;68982;52.160;6.736;2024-01-30T02:11:06;13.60;;;8.43;;
79533;SDS011;68982;52.160;6.736;2024-01-30T02:13:32;16.15;;;8.95;;
79533;SDS011;68982;52.160;6.736;2024-01-30T02:15:57;16.13;;;9.23;;
79533;SDS011;68982;52.160;6.736;2024-01-30T02:18:23;13.30;;;8.57;;
79533;SDS011;68982;52.160;6.736;2024-01-30T02:20:48;18.65;;;8.30;;
79533;SDS011;68982;52.160;6.736;2024-01-30T02:23:15;14.73;;;9.05;;
79533;SDS011;68982;52.160;6.736;2024-01-30T02:25:42;14.73;;;8.45;;
79533;SDS011;68982;52.160;6.736;2024-01-30T02:28:10;14.10;;;8.45;;
79533;SDS011;68982;52.160;6.736;2024-01-30T02:30:47;14.85;;;8.43;;
79533;SDS011;68982;52.160;6.736;2024-01-30T02:33:13;13.82;;;8.45;;
79533;SDS011;68982;52.160;6.736;2024-01-30T02:35:38;14.18;;;8.20;;
79533;SDS011;68982;52.160;6.736;2024-01-30T02:38:04;14.98;;;8.98;;
79533;SDS011;68982;52.160;6.736;2024-01-30T02:40:29;16.05;;;8.95;;
79533;SDS011;68982;52.160;6.736;2024-01-30T02:42:55;18.67;;;9.30;;
79533;SDS011;68982;52.160;6.736;2024-01-30T02:45:21;14.38;;;8.40;;
79533;SDS011;68982;52.160;6.736;2024-01-30T02:47:46;13.27;;;7.95;;
79533;SDS011;68982;52.160;6.736;2024-01-30T02:50:12;14.80;;;8.57;;
79533;SDS011;68982;52.160;6.736;2024-01-30T02:52:38;18.02;;;8.85;;
79533;SDS011;68982;52.160;6.736;2024-01-30T02:55:03;14.20;;;9.00;;
79533;SDS011;68982;52.160;6.736;2024-01-30T02:57:29;20.98;;;8.93;;
79533;SDS011;68982;52.160;6.736;2024-01-30T02:59:54;15.90;;;8.98;;
79533;SDS011;68982;52.160;6.736;2024-01-30T03:02:20;18.05;;;8.68;;
79533;SDS011;68982;52.160;6.736;2024-01-30T03:04:45;16.52;;;9.23;;
79533;SDS011;68982;52.160;6.736;2024-01-30T03:07:11;15.45;;;9.35;;
79533;SDS011;68982;52.160;6.736;2024-01-30T03:09:37;16.13;;;8.85;;
79533;SDS011;68982;52.160;6.736;2024-01-30T03:12:03;14.40;;;9.30;;
79533;SDS011;68982;52.160;6.736;2024-01-30T03:14:30;14.43;;;8.50;;
79533;SDS011;68982;52.160;6.736;2024-01-30T03:16:56;14.13;;;8.70;;
79533;SDS011;68982;52.160;6.736;2024-01-30T03:19:21;16.02;;;9.27;;
79533;SDS011;68982;52.160;6.736;2024-01-30T03:21:46;15.40;;;9.23;;
79533;SDS011;68982;52.160;6.736;2024-01-30T03:24:12;16.07;;;8.57;;
79533;SDS011;68982;52.160;6.736;2024-01-30T03:26:37;13.90;;;9.07;;
79533;SDS011;68982;52.160;6.736;2024-01-30T03:29:02;15.30;;;8.37;;
79533;SDS011;68982;52.160;6.736;2024-01-30T03:31:28;13.73;;;8.67;;
79533;SDS011;68982;52.160;6.736;2024-01-30T03:33:53;15.53;;;8.70;;
79533;SDS011;68982;52.160;6.736;2024-01-30T03:36:18;16.38;;;8.57;;
79533;SDS011;68982;52.160;6.736;2024-01-30T03:38:44;15.32;;;8.80;;
79533;SDS011;68982;52.160;6.736;2024-01-30T03:41:10;13.53;;;8.70;;
79533;SDS011;68982;52.160;6.736;2024-01-30T03:43:35;14.48;;;9.40;;
79533;SDS011;68982;52.160;6.736;2024-01-30T03:46:01;19.90;;;9.90;;
79533;SDS011;68982;52.160;6.736;2024-01-30T03:48:27;19.10;;;8.85;;
79533;SDS011;68982;52.160;6.736;2024-01-30T03:50:53;14.75;;;8.68;;
79533;SDS011;68982;52.160;6.736;2024-01-30T03:53:18;17.30;;;9.57;;
79533;SDS011;68982;52.160;6.736;2024-01-30T03:55:44;14.35;;;9.10;;
79533;SDS011;68982;52.160;6.736;2024-01-30T03:58:09;12.68;;;8.32;;
79533;SDS011;68982;52.160;6.736;2024-01-30T04:00:34;15.97;;;10.17;;
79533;SDS011;68982;52.160;6.736;2024-01-30T04:03:00;16.17;;;9.23;;
79533;SDS011;68982;52.160;6.736;2024-01-30T04:05:25;17.88;;;9.10;;
79533;SDS011;68982;52.160;6.736;2024-01-30T04:07:51;17.73;;;9.75;;
79533;SDS011;68982;52.160;6.736;2024-01-30T04:10:16;15.97;;;9.10;;
79533;SDS011;68982;52.160;6.736;2024-01-30T04:12:41;18.35;;;9.32;;
79533;SDS011;68982;52.160;6.736;2024-01-30T04:15:07;16.48;;;8.90;;
79533;SDS011;68982;52.160;6.736;2024-01-30T04:17:33;16.15;;;9.35;;
79533;SDS011;68982;52.160;6.736;2024-01-30T04:19:58;15.57;;;8.85;;
79533;SDS011;68982;52.160;6.736;2024-01-30T04:22:23;16.13;;;8.97;;
79533;SDS011;68982;52.160;6.736;2024-01-30T04:24:49;14.17;;;9.00;;
79533;SDS011;68982;52.160;6.736;2024-01-30T04:27:14;16.17;;;9.37;;
79533;SDS011;68982;52.160;6.736;2024-01-30T04:29:39;15.43;;;9.25;;
79533;SDS011;68982;52.160;6.736;2024-01-30T04:32:05;15.73;;;9.00;;
79533;SDS011;68982;52.160;6.736;2024-01-30T04:34:30;17.67;;;8.80;;
79533;SDS011;68982;52.160;6.736;2024-01-30T04:36:55;19.10;;;9.93;;
79533;SDS011;68982;52.160;6.736;2024-01-30T04:39:21;19.40;;;9.38;;
79533;SDS011;68982;52.160;6.736;2024-01-30T04:41:46;15.88;;;9.93;;
79533;SDS011;68982;52.160;6.736;2024-01-30T04:44:12;15.10;;;9.53;;
79533;SDS011;68982;52.160;6.736;2024-01-30T04:46:37;13.10;;;8.65;;
79533;SDS011;68982;52.160;6.736;2024-01-30T04:49:02;19.38;;;9.68;;
79533;SDS011;68982;52.160;6.736;2024-01-30T04:51:28;14.82;;;9.80;;
79533;SDS011;68982;52.160;6.736;2024-01-30T04:53:54;19.20;;;9.48;;
79533;SDS011;68982;52.160;6.736;2024-01-30T04:56:20;15.90;;;9.27;;
79533;SDS011;68982;52.160;6.736;2024-01-30T04:58:45;15.83;;;9.40;;
79533;SDS011;68982;52.160;6.736;2024-01-30T05:01:14;16.93;;;9.73;;
79533;SDS011;68982;52.160;6.736;2024-01-30T05:03:40;16.50;;;8.98;;
79533;SDS011;68982;52.160;6.736;2024-01-30T05:06:05;18.88;;;9.30;;
79533;SDS011;68982;52.160;6.736;2024-01-30T05:08:31;17.67;;;10.20;;
79533;SDS011;68982;52.160;6.736;2024-01-30T05:10:59;13.43;;;8.75;;
79533;SDS011;68982;52.160;6.736;2024-01-30T05:13:25;20.73;;;10.48;;
79533;SDS011;68982;52.160;6.736;2024-01-30T05:15:51;14.77;;;9.15;;
79533;SDS011;68982;52.160;6.736;2024-01-30T05:18:16;15.32;;;9.15;;
79533;SDS011;68982;52.160;6.736;2024-01-30T05:20:41;19.15;;;10.05;;
79533;SDS011;68982;52.160;6.736;2024-01-30T05:23:07;14.10;;;8.68;;
79533;SDS011;68982;52.160;6.736;2024-01-30T05:25:33;16.48;;;9.40;;
79533;SDS011;68982;52.160;6.736;2024-01-30T05:27:58;16.27;;;9.68;;
79533;SDS011;68982;52.160;6.736;2024-01-30T05:30:24;20.10;;;9.85;;
79533;SDS011;68982;52.160;6.736;2024-01-30T05:32:49;13.65;;;9.20;;
79533;SDS011;68982;52.160;6.736;2024-01-30T05:35:15;20.15;;;10.15;;
79533;SDS011;68982;52.160;6.736;2024-01-30T05:37:40;19.70;;;9.18;;
79533;SDS011;68982;52.160;6.736;2024-01-30T05:40:06;16.70;;;9.85;;
79533;SDS011;68982;52.160;6.736;2024-01-30T05:42:31;17.98;;;9.15;;
79533;SDS011;68982;52.160;6.736;2024-01-30T05:44:57;15.90;;;8.93;;
79533;SDS011;68982;52.160;6.736;2024-01-30T05:47:22;17.57;;;9.20;;
79533;SDS011;68982;52.160;6.736;2024-01-30T05:49:47;15.57;;;8.90;;
79533;SDS011;68982;52.160;6.736;2024-01-30T05:52:13;14.40;;;9.17;;
79533;SDS011;68982;52.160;6.736;2024-01-30T05:54:38;16.20;;;8.75;;
79533;SDS011;68982;52.160;6.736;2024-01-30T05:57:03;17.20;;;9.13;;
79533;SDS011;68982;52.160;6.736;2024-01-30T05:59:29;17.83;;;9.43;;
79533;SDS011;68982;52.160;6.736;2024-01-30T06:01:54;15.57;;;9.03;;
79533;SDS011;68982;52.160;6.736;2024-01-30T06:04:19;18.10;;;9.47;;
79533;SDS011;68982;52.160;6.736;2024-01-30T06:06:45;17.00;;;9.73;;
79533;SDS011;68982;52.160;6.736;2024-01-30T06:09:10;15.27;;;9.33;;
79533;SDS011;68982;52.160;6.736;2024-01-30T06:11:37;14.63;;;9.00;;
79533;SDS011;68982;52.160;6.736;2024-01-30T06:14:03;13.00;;;8.68;;
79533;SDS011;68982;52.160;6.736;2024-01-30T06:16:28;13.90;;;9.10;;
79533;SDS011;68982;52.160;6.736;2024-01-30T06:18:54;15.20;;;8.77;;
79533;SDS011;68982;52.160;6.736;2024-01-30T06:21:20;14.88;;;8.75;;
79533;SDS011;68982;52.160;6.736;2024-01-30T06:23:46;15.40;;;9.27;;
79533;SDS011;68982;52.160;6.736;2024-01-30T06:26:11;13.05;;;8.77;;
79533;SDS011;68982;52.160;6.736;2024-01-30T06:28:36;13.93;;;8.75;;
79533;SDS011;68982;52.160;6.736;2024-01-30T06:31:02;13.57;;;8.23;;
79533;SDS011;68982;52.160;6.736;2024-01-30T06:33:27;13.75;;;8.00;;
79533;SDS011;68982;52.160;6.736;2024-01-30T06:35:52;13.30;;;8.20;;
79533;SDS011;68982;52.160;6.736;2024-01-30T06:38:18;13.90;;;8.97;;
79533;SDS011;68982;52.160;6.736;2024-01-30T06:40:43;17.17;;;8.90;;
79533;SDS011;68982;52.160;6.736;2024-01-30T06:43:08;16.30;;;8.33;;
79533;SDS011;68982;52.160;6.736;2024-01-30T06:45:34;17.45;;;8.02;;
79533;SDS011;68982;52.160;6.736;2024-01-30T06:48:00;14.25;;;8.07;;
79533;SDS011;68982;52.160;6.736;2024-01-30T06:50:25;16.35;;;8.02;;
79533;SDS011;68982;52.160;6.736;2024-01-30T06:52:51;13.02;;;7.65;;
79533;SDS011;68982;52.160;6.736;2024-01-30T06:55:16;15.43;;;8.20;;
79533;SDS011;68982;52.160;6.736;2024-01-30T06:57:42;16.35;;;8.48;;
79533;SDS011;68982;52.160;6.736;2024-01-30T07:00:08;15.10;;;8.27;;
79533;SDS011;68982;52.160;6.736;2024-01-30T07:02:33;13.15;;;8.50;;
79533;SDS011;68982;52.160;6.736;2024-01-30T07:04:59;13.75;;;8.65;;
79533;SDS011;68982;52.160;6.736;2024-01-30T07:07:24;13.27;;;8.23;;
79533;SDS011;68982;52.160;6.736;2024-01-30T07:09:49;12.10;;;8.02;;
79533;SDS011;68982;52.160;6.736;2024-01-30T07:12:17;12.10;;;7.78;;
79533;SDS011;68982;52.160;6.736;2024-01-30T07:14:43;14.32;;;8.10;;
79533;SDS011;68982;52.160;6.736;2024-01-30T07:17:08;14.15;;;8.23;;
79533;SDS011;68982;52.160;6.736;2024-01-30T07:19:33;12.33;;;7.57;;
79533;SDS011;68982;52.160;6.736;2024-01-30T07:22:00;12.85;;;7.38;;
79533;SDS011;68982;52.160;6.736;2024-01-30T07:24:26;13.85;;;7.93;;
79533;SDS011;68982;52.160;6.736;2024-01-30T07:26:51;12.40;;;8.63;;
79533;SDS011;68982;52.160;6.736;2024-01-30T07:29:16;14.25;;;7.95;;
79533;SDS011;68982;52.160;6.736;2024-01-30T07:31:42;14.10;;;7.88;;
79533;SDS011;68982;52.160;6.736;2024-01-30T07:34:08;14.53;;;8.37;;
79533;SDS011;68982;52.160;6.736;2024-01-30T07:36:33;12.98;;;7.38;;
79533;SDS011;68982;52.160;6.736;2024-01-30T07:38:59;11.73;;;8.20;;
79533;SDS011;68982;52.160;6.736;2024-01-30T07:41:24;13.93;;;7.57;;
79533;SDS011;68982;52.160;6.736;2024-01-30T07:43:50;11.75;;;7.57;;
79533;SDS011;68982;52.160;6.736;2024-01-30T07:46:15;12.70;;;7.65;;
79533;SDS011;68982;52.160;6.736;2024-01-30T07:48:41;10.43;;;7.20;;
79533;SDS011;68982;52.160;6.736;2024-01-30T07:51:06;11.60;;;7.40;;
79533;SDS011;68982;52.160;6.736;2024-01-30T07:53:31;11.43;;;7.38;;
79533;SDS011;68982;52.160;6.736;2024-01-30T07:55:57;11.53;;;7.10;;
79533;SDS011;68982;52.160;6.736;2024-01-30T07:58:22;13.48;;;7.78;;
79533;SDS011;68982;52.160;6.736;2024-01-30T08:00:48;13.52;;;7.30;;
79533;SDS011;68982;52.160;6.736;2024-01-30T08:03:14;12.80;;;7.75;;
79533;SDS011;68982;52.160;6.736;2024-01-30T08:05:41;12.27;;;7.57;;
79533;SDS011;68982;52.160;6.736;2024-01-30T08:08:07;11.85;;;7.40;;
79533;SDS011;68982;52.160;6.736;2024-01-30T08:10:32;13.25;;;7.20;;
79533;SDS011;68982;52.160;6.736;2024-01-30T08:12:57;10.47;;;7.37;;
79533;SDS011;68982;52.160;6.736;2024-01-30T08:15:23;14.90;;;8.73;;
79533;SDS011;68982;52.160;6.736;2024-01-30T08:17:48;13.77;;;7.47;;
79533;SDS011;68982;52.160;6.736;2024-01-30T08:20:14;13.20;;;7.68;;
79533;SDS011;68982;52.160;6.736;2024-01-30T08:22:39;11.88;;;8.07;;
79533;SDS011;68982;52.160;6.736;2024-01-30T08:25:07;12.30;;;7.57;;
79533;SDS011;68982;52.160;6.736;2024-01-30T08:27:34;12.60;;;7.50;;
79533;SDS011;68982;52.160;6.736;2024-01-30T08:30:01;13.73;;;7.40;;
79533;SDS011;68982;52.160;6.736;2024-01-30T08:32:26;16.50;;;7.88;;
79533;SDS011;68982;52.160;6.736;2024-01-30T08:34:52;13.13;;;7.80;;
79533;SDS011;68982;52.160;6.736;2024-01-30T08:37:17;13.55;;;7.40;;
79533;SDS011;68982;52.160;6.736;2024-01-30T08:39:43;11.77;;;7.15;;
79533;SDS011;68982;52.160;6.736;2024-01-30T08:42:09;11.88;;;7.55;;
79533;SDS011;68982;52.160;6.736;2024-01-30T08:44:35;12.18;;;7.57;;
79533;SDS011;68982;52.160;6.736;2024-01-30T08:47:00;11.68;;;7.32;;
79533;SDS011;68982;52.160;6.736;2024-01-30T08:49:26;11.18;;;7.00;;
79533;SDS011;68982;52.160;6.736;2024-01-30T08:51:51;12.82;;;7.30;;
79533;SDS011;68982;52.160;6.736;2024-01-30T08:54:16;14.13;;;8.30;;
79533;SDS011;68982;52.160;6.736;2024-01-30T08:56:42;11.68;;;7.47;;
79533;SDS011;68982;52.160;6.736;2024-01-30T08:59:08;12.65;;;7.07;;
79533;SDS011;68982;52.160;6.736;2024-01-30T09:01:33;10.77;;;7.55;;
79533;SDS011;68982;52.160;6.736;2024-01-30T09:03:59;14.10;;;7.35;;
79533;SDS011;68982;52.160;6.736;2024-01-30T09:06:24;14.10;;;7.37;;
79533;SDS011;68982;52.160;6.736;2024-01-30T09:11:17;11.77;;;7.40;;
79533;SDS011;68982;52.160;6.736;2024-01-30T09:13:43;12.40;;;7.45;;
79533;SDS011;68982;52.160;6.736;2024-01-30T09:16:08;13.10;;;7.35;;
79533;SDS011;68982;52.160;6.736;2024-01-30T09:18:34;15.35;;;7.82;;
79533;SDS011;68982;52.160;6.736;2024-01-30T09:20:59;13.75;;;7.60;;
79533;SDS011;68982;52.160;6.736;2024-01-30T09:23:24;12.82;;;7.38;;
79533;SDS011;68982;52.160;6.736;2024-01-30T09:25:52;11.15;;;7.22;;
79533;SDS011;68982;52.160;6.736;2024-01-30T09:28:17;11.00;;;6.67;;
79533;SDS011;68982;52.160;6.736;2024-01-30T09:30:45;12.27;;;7.28;;
79533;SDS011;68982;52.160;6.736;2024-01-30T09:33:10;12.02;;;7.72;;
79533;SDS011;68982;52.160;6.736;2024-01-30T09:35:35;10.50;;;6.50;;
79533;SDS011;68982;52.160;6.736;2024-01-30T09:38:01;11.70;;;6.90;;
79533;SDS011;68982;52.160;6.736;2024-01-30T09:40:27;10.98;;;7.13;;
79533;SDS011;68982;52.160;6.736;2024-01-30T09:42:53;11.13;;;7.60;;
79533;SDS011;68982;52.160;6.736;2024-01-30T09:45:19;12.55;;;7.35;;
79533;SDS011;68982;52.160;6.736;2024-01-30T09:47:48;12.05;;;6.82;;
79533;SDS011;68982;52.160;6.736;2024-01-30T09:50:14;13.23;;;6.37;;
79533;SDS011;68982;52.160;6.736;2024-01-30T09:52:40;12.55;;;7.22;;
79533;SDS011;68982;52.160;6.736;2024-01-30T09:55:08;12.07;;;7.05;;
79533;SDS011;68982;52.160;6.736;2024-01-30T09:57:34;10.80;;;7.13;;
79533;SDS011;68982;52.160;6.736;2024-01-30T10:00:00;14.60;;;6.90;;
79533;SDS011;68982;52.160;6.736;2024-01-30T10:02:26;16.70;;;7.65;;
79533;SDS011;68982;52.160;6.736;2024-01-30T10:04:52;14.33;;;6.97;;
79533;SDS011;68982;52.160;6.736;2024-01-30T10:07:17;14.07;;;7.90;;
79533;SDS011;68982;52.160;6.736;2024-01-30T10:09:44;11.10;;;7.57;;
79533;SDS011;68982;52.160;6.736;2024-01-30T10:12:10;12.90;;;7.55;;
79533;SDS011;68982;52.160;6.736;2024-01-30T10:14:39;13.45;;;7.30;;
79533;SDS011;68982;52.160;6.736;2024-01-30T10:17:05;14.90;;;7.53;;
79533;SDS011;68982;52.160;6.736;2024-01-30T10:19:32;12.23;;;7.43;;
79533;SDS011;68982;52.160;6.736;2024-01-30T10:21:57;11.02;;;7.05;;
79533;SDS011;68982;52.160;6.736;2024-01-30T10:24:25;11.63;;;7.30;;
79533;SDS011;68982;52.160;6.736;2024-01-30T10:26:51;11.73;;;7.60;;
79533;SDS011;68982;52.160;6.736;2024-01-30T10:29:17;13.32;;;8.48;;
79533;SDS011;68982;52.160;6.736;2024-01-30T10:31:42;11.60;;;7.75;;
79533;SDS011;68982;52.160;6.736;2024-01-30T10:34:07;14.40;;;7.50;;
79533;SDS011;68982;52.160;6.736;2024-01-30T10:36:33;12.05;;;7.82;;
79533;SDS011;68982;52.160;6.736;2024-01-30T10:39:08;12.52;;;7.07;;
79533;SDS011;68982;52.160;6.736;2024-01-30T10:41:36;15.57;;;7.05;;
79533;SDS011;68982;52.160;6.736;2024-01-30T10:44:10;11.10;;;7.78;;
79533;SDS011;68982;52.160;6.736;2024-01-30T10:46:38;18.65;;;7.75;;
79533;SDS011;68982;52.160;6.736;2024-01-30T10:49:04;13.82;;;7.20;;
79533;SDS011;68982;52.160;6.736;2024-01-30T10:51:31;16.30;;;8.52;;
79533;SDS011;68982;52.160;6.736;2024-01-30T10:53:57;11.35;;;7.80;;
79533;SDS011;68982;52.160;6.736;2024-01-30T10:56:22;12.73;;;7.22;;
79533;SDS011;68982;52.160;6.736;2024-01-30T10:58:49;13.82;;;8.00;;
79533;SDS011;68982;52.160;6.736;2024-01-30T11:01:16;12.07;;;6.50;;
79533;SDS011;68982;52.160;6.736;2024-01-30T11:03:42;11.27;;;6.70;;
79533;SDS011;68982;52.160;6.736;2024-01-30T11:06:10;12.18;;;7.22;;
79533;SDS011;68982;52.160;6.736;2024-01-30T11:08:39;16.45;;;6.72;;
79533;SDS011;68982;52.160;6.736;2024-01-30T11:11:07;12.43;;;6.93;;
79533;SDS011;68982;52.160;6.736;2024-01-30T11:13:34;14.25;;;7.50;;
79533;SDS011;68982;52.160;6.736;2024-01-30T11:16:06;13.10;;;7.50;;
79533;SDS011;68982;52.160;6.736;2024-01-30T11:18:32;13.15;;;6.95;;
79533;SDS011;68982;52.160;6.736;2024-01-30T11:21:00;13.85;;;7.88;;
79533;SDS011;68982;52.160;6.736;2024-01-30T11:23:27;14.95;;;8.35;;
79533;SDS011;68982;52.160;6.736;2024-01-30T11:25:53;12.93;;;7.95;;
79533;SDS011;68982;52.160;6.736;2024-01-30T11:28:20;11.10;;;6.85;;
79533;SDS011;68982;52.160;6.736;2024-01-30T11:30:46;13.35;;;7.72;;
79533;SDS011;68982;52.160;6.736;2024-01-30T11:33:15;14.63;;;7.50;;
79533;SDS011;68982;52.160;6.736;2024-01-30T11:35:55;20.08;;;9.55;;
79533;SDS011;68982;52.160;6.736;2024-01-30T11:40:48;13.70;;;8.02;;
79533;SDS011;68982;52.160;6.736;2024-01-30T11:43:14;12.68;;;8.10;;
79533;SDS011;68982;52.160;6.736;2024-01-30T11:45:41;14.60;;;10.68;;
79533;SDS011;68982;52.160;6.736;2024-01-30T11:48:08;10.82;;;6.82;;
79533;SDS011;68982;52.160;6.736;2024-01-30T11:50:35;13.95;;;8.93;;
79533;SDS011;68982;52.160;6.736;2024-01-30T11:53:03;13.93;;;8.38;;
79533;SDS011;68982;52.160;6.736;2024-01-30T11:55:29;14.13;;;7.75;;
79533;SDS011;68982;52.160;6.736;2024-01-30T11:57:56;14.88;;;8.35;;
79533;SDS011;68982;52.160;6.736;2024-01-30T12:00:23;13.02;;;7.72;;
79533;SDS011;68982;52.160;6.736;2024-01-30T12:02:49;12.00;;;7.82;;
79533;SDS011;68982;52.160;6.736;2024-01-30T12:05:15;13.05;;;7.78;;
79533;SDS011;68982;52.160;6.736;2024-01-30T12:07:43;11.98;;;7.55;;
79533;SDS011;68982;52.160;6.736;2024-01-30T12:10:09;12.50;;;7.50;;
79533;SDS011;68982;52.160;6.736;2024-01-30T12:12:34;12.27;;;7.40;;
79533;SDS011;68982;52.160;6.736;2024-01-30T12:15:00;13.38;;;7.00;;
79533;SDS011;68982;52.160;6.736;2024-01-30T12:17:28;15.13;;;8.15;;
79533;SDS011;68982;52.160;6.736;2024-01-30T12:20:04;12.13;;;7.13;;
79533;SDS011;68982;52.160;6.736;2024-01-30T12:22:31;16.05;;;6.97;;
79533;SDS011;68982;52.160;6.736;2024-01-30T12:24:57;14.85;;;8.45;;
79533;SDS011;68982;52.160;6.736;2024-01-30T12:27:23;14.27;;;7.18;;
79533;SDS011;68982;52.160;6.736;2024-01-30T12:29:48;10.63;;;7.47;;
79533;SDS011;68982;52.160;6.736;2024-01-30T12:32:22;10.80;;;7.50;;
79533;SDS011;68982;52.160;6.736;2024-01-30T12:34:47;10.38;;;7.38;;
79533;SDS011;68982;52.160;6.736;2024-01-30T12:37:13;13.40;;;7.30;;
79533;SDS011;68982;52.160;6.736;2024-01-30T12:39:38;10.85;;;6.88;;
79533;SDS011;68982;52.160;6.736;2024-01-30T12:42:04;11.50;;;7.45;;
79533;SDS011;68982;52.160;6.736;2024-01-30T12:44:29;13.85;;;7.22;;
79533;SDS011;68982;52.160;6.736;2024-01-30T12:46:55;14.00;;;6.82;;
79533;SDS011;68982;52.160;6.736;2024-01-30T12:49:20;14.03;;;7.47;;
79533;SDS011;68982;52.160;6.736;2024-01-30T12:51:46;12.45;;;7.43;;
79533;SDS011;68982;52.160;6.736;2024-01-30T12:54:12;12.93;;;7.20;;
79533;SDS011;68982;52.160;6.736;2024-01-30T12:56:38;13.63;;;8.25;;
79533;SDS011;68982;52.160;6.736;2024-01-30T12:59:03;12.57;;;7.85;;
79533;SDS011;68982;52.160;6.736;2024-01-30T13:01:28;13.30;;;8.63;;
79533;SDS011;68982;52.160;6.736;2024-01-30T13:03:54;14.27;;;7.72;;
79533;SDS011;68982;52.160;6.736;2024-01-30T13:06:22;13.18;;;8.55;;
79533;SDS011;68982;52.160;6.736;2024-01-30T13:08:47;12.82;;;7.53;;
79533;SDS011;68982;52.160;6.736;2024-01-30T13:11:13;15.43;;;8.70;;
79533;SDS011;68982;52.160;6.736;2024-01-30T13:13:38;14.10;;;7.50;;
79533;SDS011;68982;52.160;6.736;2024-01-30T13:16:03;12.57;;;7.73;;
79533;SDS011;68982;52.160;6.736;2024-01-30T13:18:29;10.90;;;7.05;;
79533;SDS011;68982;52.160;6.736;2024-01-30T13:20:54;16.40;;;8.90;;
79533;SDS011;68982;52.160;6.736;2024-01-30T13:23:20;16.43;;;8.80;;
79533;SDS011;68982;52.160;6.736;2024-01-30T13:25:45;12.33;;;6.63;;
79533;SDS011;68982;52.160;6.736;2024-01-30T13:28:10;12.50;;;6.78;;
79533;SDS011;68982;52.160;6.736;2024-01-30T13:30:36;14.97;;;6.80;;
79533;SDS011;68982;52.160;6.736;2024-01-30T13:33:01;11.68;;;6.13;;
79533;SDS011;68982;52.160;6.736;2024-01-30T13:35:28;9.27;;;6.25;;
79533;SDS011;68982;52.160;6.736;2024-01-30T13:37:53;10.80;;;7.25;;
79533;SDS011;68982;52.160;6.736;2024-01-30T13:40:19;13.38;;;6.45;;
79533;SDS011;68982;52.160;6.736;2024-01-30T13:42:44;14.13;;;6.03;;
79533;SDS011;68982;52.160;6.736;2024-01-30T13:45:09;8.25;;;5.80;;
79533;SDS011;68982;52.160;6.736;2024-01-30T13:47:35;9.77;;;5.88;;
79533;SDS011;68982;52.160;6.736;2024-01-30T13:50:00;8.47;;;5.50;;
79533;SDS011;68982;52.160;6.736;2024-01-30T13:52:25;8.63;;;4.90;;
79533;SDS011;68982;52.160;6.736;2024-01-30T13:54:52;7.72;;;4.65;;
79533;SDS011;68982;52.160;6.736;2024-01-30T13:57:17;11.40;;;5.28;;
79533;SDS011;68982;52.160;6.736;2024-01-30T13:59:42;7.88;;;4.82;;
79533;SDS011;68982;52.160;6.736;2024-01-30T14:02:08;9.13;;;5.15;;
79533;SDS011;68982;52.160;6.736;2024-01-30T14:04:35;10.70;;;5.05;;
79533;SDS011;68982;52.160;6.736;2024-01-30T14:07:02;9.68;;;5.05;;
79533;SDS011;68982;52.160;6.736;2024-01-30T14:09:27;9.38;;;4.07;;
79533;SDS011;68982;52.160;6.736;2024-01-30T14:11:53;6.57;;;4.20;;
79533;SDS011;68982;52.160;6.736;2024-01-30T14:14:19;8.23;;;3.33;;
79533;SDS011;68982;52.160;6.736;2024-01-30T14:16:44;6.82;;;3.40;;
79533;SDS011;68982;52.160;6.736;2024-01-30T14:19:10;5.15;;;3.13;;
79533;SDS011;68982;52.160;6.736;2024-01-30T14:21:35;7.23;;;3.50;;
79533;SDS011;68982;52.160;6.736;2024-01-30T14:24:02;6.05;;;3.22;;
79533;SDS011;68982;52.160;6.736;2024-01-30T14:26:27;5.72;;;3.22;;
79533;SDS011;68982;52.160;6.736;2024-01-30T14:28:53;5.85;;;2.63;;
79533;SDS011;68982;52.160;6.736;2024-01-30T14:31:20;5.68;;;3.10;;
79533;SDS011;68982;52.160;6.736;2024-01-30T14:33:46;11.40;;;3.00;;